x

8461490 - New London, Ct (nlnc3) Weather Station

12:54 - Sun 19th Feb 2017 All times are EST. -5 hours from GMT.

  • Wind
    7mph, 9mph gusts
  • Sea Temp 40°f
  • Air Temp 58°f
  • Sea Pressure 1007.2mb
  • 8461490 - New London, Ct
  • 8461490 - New London, Ct

More Historic Weather Station data

Upgrade to MSW Pro to gain access to the past 30 days of data for over 8000 Wavebouys and Weather Stations around the globe.

Join Pro

Comparision Forecast

View Surf forecast
   
dim. 02/19 12:54 7 9 mph 1007.2mb 40f 58f
12:48 6 11 mph - 40f 58f
12:42 9 11 mph - 40f 58f
12:36 7 11 mph - 40f 58f
12:30 6 8 mph 1007.1mb 40f 58f
12:24 6 9 mph 1007.2mb 40f 58f
12:18 3 7 mph 1007.4mb 40f 56f
12:12 3 8 mph 1007.4mb 40f 55f
12:06 7 9 mph 1007.4mb 40f 55f
12:00 5 8 mph 1007.4mb 40f 55f
11:54 1 3 mph 1007.4mb 40f 54f
11:48 3 5 mph 1007.6mb 40f 56f
11:42 5 8 mph 1007.6mb 40f 57f
11:36  -  3 mph 1007.7mb 40f 53f
11:30 2 5 mph 1007.7mb 40f 53f
11:24 3 6 mph 1007.8mb 40f 58f
11:18 2 6 mph 1007.8mb 40f 59f
11:12 3 8 mph 1007.8mb 40f 59f
11:06 7 9 mph 1007.9mb 40f 59f
11:00 5 10 mph 1007.9mb 40f 59f
10:54 6 9 mph 1008mb 40f 58f
10:48 7 13 mph 1008mb 40f 58f
10:42 6 9 mph 1007.9mb 40f 58f
10:36 8 14 mph 1007.9mb 40f 58f
10:30 6 11 mph 1007.9mb 40f 58f
10:24 5 10 mph 1008mb 40f 58f
10:18 7 13 mph 1008mb 40f 57f
10:12 6 8 mph 1007.9mb 40f 57f
10:06 6 11 mph 1007.9mb 40f 57f
10:00 6 14 mph 1007.8mb 40f 57f
9:54 8 15 mph 1007.8mb 40f 58f
9:48 7 13 mph 1007.7mb 40f 58f
9:42 7 15 mph 1007.7mb 40f 57f
9:36 6 13 mph 1007.7mb 40f 58f
9:30 6 10 mph 1007.7mb 40f -
9:24 6 11 mph 1007.7mb 40f -
9:18 7 11 mph 1007.5mb 40f -
9:12 3 9 mph 1007.5mb 40f -
9:06 6 9 mph 1007.4mb 40f -
9:00  -  3 mph 1007.4mb 40f 41f
8:54 1 6 mph 1007.4mb 40f 44f
8:48 2 3 mph 1007.4mb 40f 42f
8:42 3
mph
1007.3mb 40f 40f
8:36  -  3 mph 1007.3mb 40f 39f
8:30 2 3 mph 1007.3mb 40f 38f
8:24 1 3 mph 1007.3mb 40f 38f
8:18 3 6 mph 1007.1mb 40f 38f
8:12 6 7 mph 1007.1mb 40f 37f
8:06 6 7 mph 1007mb 40f 37f
8:00 6 7 mph 1007mb 40f 36f
7:54 6 7 mph 1006.9mb 40f 36f
7:48 6 7 mph 1006.9mb 40f 36f
7:42 6 7 mph 1006.9mb 40f 35f
7:36 6 7 mph 1006.8mb 40f 35f
7:30 5 6 mph 1006.8mb 40f 35f
7:24 3 7 mph 1006.8mb 40f 35f
7:18 5 7 mph 1006.7mb 40f 35f
7:12 3 7 mph 1006.7mb 40f 35f
7:06 6 7 mph 1006.6mb 40f 35f
7:00 2 5 mph 1006.5mb 40f 35f
6:54 3 6 mph 1006.5mb 40f 35f
6:48 5 6 mph 1006.5mb 40f 35f
6:42 5 6 mph 1006.4mb 40f 35f
6:36 3 5 mph 1006.3mb 40f 35f
6:30 3
mph
1006.3mb 40f 36f
6:24 2 3 mph 1006.3mb 40f 35f
6:18 3 5 mph 1006.2mb 40f 35f
6:12 3
mph
1006.2mb 40f 35f
6:06 1 3 mph 1006.2mb 40f 35f
6:00 2 3 mph 1006.2mb 40f 35f
5:54 2 5 mph 1006.1mb 40f 35f
5:48 3
mph
1006mb 40f 35f
5:42 1 2 mph 1005.9mb 40f 35f
5:36 2 5 mph 1005.9mb 40f 35f
5:30 3 5 mph 1005.8mb 40f 35f
5:24  -  1 mph 1005.8mb 40f 35f
5:18  -  2 mph 1005.7mb 40f 35f
5:12 2 3 mph 1005.6mb 40f 35f
5:06 3 5 mph 1005.5mb 40f 36f
5:00 2 6 mph 1005.3mb 40f 36f
4:54 3 5 mph 1005.2mb 40f 36f
4:48 1 2 mph 1005.1mb 40f 36f
4:42  -  1 mph 1005.1mb 40f 36f
4:36 1 2 mph 1005mb 40f 36f
4:30  -  2 mph 1004.8mb 40f 37f
4:24 1 2 mph 1004.7mb 40f 37f
4:18  -  1 mph 1004.7mb 40f 38f
4:12  -  1 mph 1004.6mb 40f 38f
4:06  -  mph 1004.4mb 40f 37f
4:00  -  1 mph 1004.4mb 40f 37f
3:54  -  1 mph 1004.2mb 40f 37f
3:48  -  1 mph 1004.1mb 40f 37f
3:42  -  mph 1004.1mb 40f 37f
3:36  -  mph 1004mb 40f 37f
3:30  -  1 mph 1004mb 40f 38f
3:24  -  mph 1003.9mb 40f 37f
3:18  -  1 mph 1003.8mb 40f 38f
3:12  -  2 mph 1003.8mb 40f 39f
3:06  -  1 mph 1003.7mb 40f 38f
3:00  -  mph 1003.6mb 40f 38f
2:54  -  mph 1003.6mb 40f 38f
2:48  -  1 mph 1003.5mb 40f 38f
2:42  -  1 mph 1003.4mb 40f 38f
2:36 1 2 mph 1003.4mb 40f 38f
2:30  -  mph 1003.4mb 40f 39f
2:24  -  1 mph 1003.3mb 40f 39f
2:18  -  1 mph 1003.2mb 40f 40f
2:12  -  mph 1003.1mb 40f 40f
2:06  -  mph 1003mb 40f 39f
2:00  -  mph 1002.9mb 40f 39f
1:54  -  1 mph 1002.9mb 40f 40f
1:48  -  1 mph 1002.8mb 40f 40f
1:42  -  2 mph 1002.8mb 40f 41f
1:36 2 3 mph 1002.7mb 40f 42f
1:30 2 3 mph 1002.7mb 40f 41f
1:24 3
mph
1002.7mb 40f 42f
1:18  -  2 mph 1002.6mb 40f 46f
1:12 2 3 mph 1002.5mb 40f 46f
1:06 2 3 mph 1002.4mb 40f 47f
1:00 2 3 mph 1002.4mb 40f 47f
12:54 2 5 mph 1002.3mb 40f 47f
12:48 2 6 mph 1002.3mb 40f 47f
12:42  -  2 mph 1002.3mb 40f 46f
12:36  -  2 mph 1002.3mb 40f 47f
12:30 2 3 mph 1002.3mb 40f 47f
12:24 1 5 mph 1002.4mb 40f 47f
12:18 3 6 mph 1002.4mb 40f 48f
12:12 5 8 mph 1002.4mb 40f 48f
12:06 5 8 mph 1002.4mb 40f 48f
12:00 3 5 mph 1002.4mb 40f 48f
sam. 02/18 11:54 2 3 mph 1002.5mb 40f 48f
11:48 2 6 mph 1002.5mb 40f 48f
11:42 2 6 mph 1002.6mb 40f 48f
11:36 5 8 mph 1002.5mb 40f 48f
11:30 2 8 mph 1002.5mb 40f 48f
11:24 3 8 mph 1002.5mb 40f 48f
11:18 3 8 mph 1002.5mb 40f 48f
11:12 5 6 mph 1002.6mb 40f 48f
11:06 2 7 mph 1002.6mb 40f 47f
11:00 3 10 mph 1002.6mb 40f 48f
10:54 5 10 mph 1002.7mb 40f 48f
10:48 5 8 mph 1002.7mb 39f 48f
10:42 6 8 mph 1002.7mb 39f 48f
10:36 2 3 mph 1002.8mb 39f 47f
10:30 3 7 mph 1002.7mb 39f 48f
10:24 5 7 mph 1002.8mb 39f 48f
10:18 3 8 mph 1002.8mb 39f 48f
10:12 3 8 mph 1002.8mb 39f 48f
10:06 3 8 mph 1002.9mb 40f 47f
10:00 5 7 mph 1002.9mb 40f 48f
9:54 3 7 mph 1003mb 40f 47f
9:48 3 7 mph 1003mb 40f 47f
9:42 3 6 mph 1003.2mb 40f 47f
9:36 3 8 mph 1003.2mb 40f 46f
9:30 2 7 mph 1003.2mb 40f 46f
9:24 6 8 mph 1003.2mb 40f 46f
9:18 5 7 mph 1003.2mb 40f 46f
9:12 5 8 mph 1003.2mb 40f 46f
9:06 6 8 mph 1003.3mb 40f 46f
9:00 6 8 mph 1003.4mb 40f 46f
8:54 5 7 mph 1003.4mb 40f 46f
8:48 6 8 mph 1003.5mb 40f 46f
8:42 5 8 mph 1003.5mb 40f 46f
8:36 3 9 mph 1003.6mb 40f 46f
8:30 6 9 mph 1003.5mb 40f 46f
8:24 3 5 mph 1003.6mb 40f 46f
8:18 3 8 mph 1003.6mb 40f 46f
8:12 3 5 mph 1003.7mb 40f 46f
8:06 2 6 mph 1003.7mb 40f 46f
8:00 3 6 mph 1003.7mb 40f 46f
7:54 3 5 mph 1003.7mb 40f 45f
7:48  -  3 mph 1003.7mb 40f 45f
7:42 1 3 mph 1003.8mb 40f 45f
7:36 1 5 mph 1003.8mb 39f 45f
7:30 3 5 mph 1003.8mb 40f 46f
7:24 2 6 mph 1003.8mb 40f 46f
7:18 3 6 mph 1003.7mb 40f 46f
7:12 3 6 mph 1003.8mb 40f 46f
7:06 5 7 mph 1003.9mb 40f 46f
7:00 5 7 mph 1003.8mb 40f 46f
6:54 5 7 mph 1003.8mb 40f 46f
6:48 3 5 mph 1003.8mb 40f 45f
6:42 3 6 mph 1003.8mb 39f 45f
6:36 3 5 mph 1003.8mb 39f 45f
6:30 3
mph
1003.8mb 39f 45f
6:24 3
mph
1003.9mb 40f 46f
6:18 1 5 mph 1003.7mb 40f 46f
6:12 2 5 mph 1003.7mb 40f 46f
6:06 3 6 mph 1003.8mb 40f 46f
6:00 3 6 mph 1003.6mb 40f 47f
5:54 3 8 mph 1003.6mb 40f 47f
5:48 3 8 mph 1003.8mb 40f 47f
5:42 7 11 mph 1003.6mb 40f 48f
5:36 8 9 mph 1003.7mb 40f 48f
5:30 6 9 mph 1003.6mb 40f 48f
5:24 6 7 mph 1003.8mb 40f 48f
5:18 5 8 mph 1004mb 40f 48f
5:12 2 7 mph 1004.2mb 40f 47f
5:06 5 8 mph 1004.2mb 40f 48f
5:00 6 11 mph 1004mb 40f 48f
4:54 6 8 mph 1004.1mb 40f 48f
4:48 6 11 mph 1004.1mb 40f 48f
4:42 7 8 mph 1004.2mb 40f 47f
4:36 6 8 mph 1004.1mb 40f 47f
4:30 5 6 mph 1004.1mb 40f 47f
4:24 5 8 mph 1004.1mb 40f 47f
4:18 3 6 mph 1004.1mb 40f 47f
4:12 6 8 mph 1004.1mb 40f 47f
4:06 7 10 mph 1004mb 40f 47f
4:00 9 13 mph 1004.1mb 40f 46f
3:54 6 9 mph 1003.9mb 40f 47f
3:48 6 13 mph 1004mb 40f 47f
3:42 9 13 mph 1004.2mb 40f 47f
3:36 9 10 mph 1004.1mb 40f 47f
3:30 7 10 mph 1004.3mb 40f 47f
3:24 8 11 mph 1004.1mb 40f 47f
3:18 8 14 mph 1004mb 40f 47f
3:12 9 14 mph 1004.1mb 40f 47f
3:06 10 16 mph 1004.1mb 40f 47f
3:00 9 14 mph 1004.3mb 40f 47f
2:54 7 14 mph 1004.3mb 40f 48f
2:48 11 15 mph 1004.3mb 40f 48f
2:42 8 13 mph 1004.2mb 40f 48f
2:36 10 15 mph 1004.2mb 40f 48f
2:30 10 15 mph 1004.3mb 40f 48f
2:24 9 14 mph 1004.4mb 40f 47f
2:18 7 15 mph 1004.5mb 40f 48f
2:12 10 14 mph 1004.7mb 40f 47f
2:06 10 15 mph 1004.9mb 39f 47f
2:00 8 15 mph 1005.2mb 39f 47f
1:54 9 15 mph 1005.2mb 39f 47f
1:48 10 13 mph 1005.4mb 39f 47f
1:42 10 14 mph 1005.5mb 39f 47f
1:36 11 16 mph 1005.6mb 39f 46f
1:30 11 15 mph 1005.7mb 39f 46f
1:24 9 14 mph 1006mb 39f 47f
1:18 10 13 mph 1006.3mb 39f 47f
1:12 10 16 mph 1006.5mb 39f 46f
1:06 11 16 mph 1006.8mb 39f 46f
1:00 11 15 mph 1006.8mb 39f 46f
12:54 14 17 mph 1006.7mb 39f 46f
12:48 11 16 mph 1006.6mb 39f 46f
12:42 11 16 mph 1006.7mb 39f 46f
12:36 11 15 mph 1007mb 40f 46f
12:30 10 16 mph 1007.2mb 40f 45f
12:24 14 17 mph 1007.4mb 39f 45f
12:18 8 15 mph 1007.6mb 39f 46f
12:12 13 16 mph 1007.6mb 39f 45f
12:06 9 15 mph 1007.8mb 39f 45f
12:00 13 15 mph 1008mb 39f 44f
11:54 11 16 mph 1008.2mb 39f 44f
11:48 9 14 mph 1008.3mb 40f 44f
11:42 7 14 mph 1008.3mb 40f 44f
11:36 13 16 mph 1008.2mb 40f 43f
11:30 11 15 mph 1008.4mb 40f 43f
11:24 11 15 mph 1008.6mb 40f 43f
11:18 9 15 mph 1008.8mb 39f 43f
11:12 9 14 mph 1009mb 39f 43f
11:06 10 16 mph 1009.2mb 40f 42f
11:00 10 14 mph 1009.4mb 39f 42f
10:54 10 15 mph 1009.3mb 39f 41f
10:48 10 14 mph 1009.3mb 39f 41f
10:42 9 15 mph 1009.4mb 39f 41f
10:36 6 11 mph 1009.5mb 39f 42f
10:30 9 15 mph 1009.6mb 39f 41f
10:24 6 14 mph 1009.7mb 39f 41f
10:18 8 11 mph 1009.6mb 39f 40f
10:12 9 16 mph 1009.8mb 39f 40f
10:06 9 13 mph 1009.9mb 39f 40f
10:00 9 15 mph 1010mb 39f 40f
9:54 8 9 mph 1010mb 39f 40f
9:48 6 8 mph 1010.1mb 39f 40f
9:42 6 9 mph 1010.2mb 39f 40f
9:36 6 10 mph 1010.3mb 39f 40f
9:30 7 13 mph 1010.3mb 39f 40f
9:24 6 11 mph 1010.3mb 39f 39f
9:18 7 9 mph 1010.3mb 39f 39f
9:12 8 11 mph 1010.3mb 39f 38f
9:06 8 11 mph 1010.4mb 39f 38f
9:00 8 11 mph 1010.5mb 39f 38f
8:54 8 11 mph 1010.5mb 39f 38f
8:48 9 11 mph 1010.5mb 39f 37f
8:42 6 9 mph 1010.6mb 39f 37f
8:36 1 2 mph 1010.7mb 39f 35f
8:30  -  1 mph 1010.8mb 39f 35f
8:24 1 2 mph 1010.6mb 39f 33f
8:18  -  1 mph 1010.7mb 39f 32f
8:12  -  1 mph 1010.8mb 39f 31f
8:06  -  mph 1010.9mb 39f 31f
8:00  -  mph 1010.9mb 39f 31f
7:54  -  mph 1011mb 39f 30f
7:48  -  1 mph 1011mb 39f 29f
7:42 1 2 mph 1011mb 39f 28f
7:36 2
mph
1011.1mb 39f 28f
7:30 2 3 mph 1011mb 39f 28f
7:24 2 3 mph 1011.1mb 39f 28f
7:18 1 2 mph 1011.1mb 39f 28f
7:12 2
mph
1011.3mb 39f 26f
7:06 2
mph
1011.2mb 39f 26f
7:00 2 3 mph 1011mb 39f 26f
6:54 2 3 mph 1011mb 39f 26f
6:48 1 2 mph 1010.9mb 39f 26f
6:42 2 3 mph 1011mb 39f 26f
6:36 2 3 mph 1011.1mb 39f 26f
6:30 2 3 mph 1011.3mb 39f 26f
6:24 2 3 mph 1011.2mb 39f 26f
6:18 3
mph
1011.1mb 39f 26f
6:12 2
mph
1011.1mb 39f 26f
6:06 1 2 mph 1011mb 39f 26f
6:00 1 2 mph 1011mb 39f 26f
5:54  -  3 mph 1010.9mb 39f 26f
5:48 2 3 mph 1010.9mb 39f 26f
5:42 2 3 mph 1010.7mb 39f 26f
5:36 2 3 mph 1010.9mb 39f 26f
5:30 2 3 mph 1010.9mb 39f 26f
5:24 2
mph
1010.9mb 39f 27f
5:18 1 2 mph 1011.2mb 39f 26f
5:12 2
mph
1011.3mb 39f 27f
5:06 1 2 mph 1011.2mb 39f 27f
5:00 2
mph
1011.2mb 39f 27f
4:54 1
mph
1011.2mb 39f 27f
4:48 1
mph
1011.3mb 39f 27f
4:42 1 2 mph 1011.3mb 39f 27f
4:36  -  2 mph 1011.2mb 39f 27f
4:30 2
mph
1011.2mb 39f 28f
4:24  -  2 mph 1011.2mb 39f 26f
4:18 1 2 mph 1011.4mb 39f 26f
4:12 2 3 mph 1011.3mb 39f 27f
4:06 2 5 mph 1011.2mb 39f 27f
4:00 3 5 mph 1011.5mb 39f 28f
3:54 3 5 mph 1011.5mb 39f 28f
3:48 2
mph
1011.3mb 39f 27f
3:42 1 3 mph 1011.2mb 39f 27f
3:36 2
mph
1011.3mb 39f 28f
3:30 1 2 mph 1011.3mb 39f 27f
3:24 2 5 mph 1011.2mb 39f 28f
3:18 3
mph
1011.1mb 39f 28f
3:12 3 5 mph 1011.1mb 39f 28f
3:06 3
mph
1011.2mb 39f 28f
3:00 2 3 mph 1011.4mb 39f 28f
2:54 2 5 mph 1011.2mb 39f 28f
2:48 2 3 mph 1011.5mb 39f 29f
2:42 2 3 mph 1011.5mb 39f 28f
2:36 2
mph
1011.5mb 39f 28f
2:30 2 3 mph 1011.4mb 39f 29f
2:24 2
mph
1011.5mb 39f 29f
2:18 2 5 mph 1011.6mb 39f 29f
2:12 3 5 mph 1011.7mb 39f 30f
2:06 2 3 mph 1011.7mb 39f 30f
2:00 1 2 mph 1011.7mb 39f 31f
1:54 2
mph
1011.8mb 39f 31f
1:48 1 2 mph 1011.7mb 39f -
1:42  -  2 mph 1011.8mb 39f -
1:36  -  2 mph 1011.8mb 39f -
1:30 1 5 mph 1011.8mb 39f 31f
1:24 3 6 mph 1011.8mb 39f 31f
1:18 2 6 mph 1011.7mb 39f 31f
1:12 3 6 mph 1011.7mb 39f 31f
1:06 2 5 mph 1011.7mb 39f 31f
1:00 3 7 mph 1011.6mb 39f 31f
12:54 3 6 mph 1011.6mb 39f 30f
12:48 1 5 mph 1011.6mb 39f 30f
12:42 2 5 mph 1011.7mb 39f 30f
12:36  -  3 mph 1011.6mb 39f 30f
12:30  -  5 mph 1011.7mb 39f 30f
12:24 1 5 mph 1011.8mb 39f 30f
12:18 1 5 mph 1011.8mb 39f 31f
12:12 2 6 mph 1011.6mb 39f 31f
12:06 6 10 mph 1011.5mb 39f 32f
12:00 3 7 mph 1011.5mb 39f 31f
ven. 02/17 11:54 3 8 mph 1011.4mb 39f 31f
11:48 6 10 mph 1011.2mb 39f 31f
11:42 5 7 mph 1011.2mb 39f 31f
11:36 5 9 mph 1011mb 39f 32f
11:30 6 8 mph 1011mb 39f 32f
11:24 3 7 mph 1010.9mb 39f 31f
11:18 5 9 mph 1010.8mb 39f 32f
11:12 6 10 mph 1010.8mb 39f 32f
11:06 5 7 mph 1010.9mb 39f 32f
11:00 6 8 mph 1011mb 39f 32f
10:54 5 7 mph 1010.9mb 39f 31f
10:48 3 8 mph 1010.8mb 39f 31f
10:42 3 6 mph 1010.8mb 39f 31f
10:36 3 6 mph 1010.9mb 39f 31f
10:30 3 6 mph 1010.9mb 39f 31f
10:24 3 6 mph 1011.1mb 39f 31f
10:18 3 5 mph 1011.1mb 39f 31f
10:12 3 6 mph 1011mb 39f 31f
10:06 2 3 mph 1010.9mb 39f 31f
10:00 2 3 mph 1010.9mb 39f 31f
9:54 1 3 mph 1010.7mb 39f 32f
9:48 3 6 mph 1010.6mb 39f 32f
9:42 3 6 mph 1010.5mb 39f 32f
9:36 3 5 mph 1010.5mb 39f 32f
9:30 3
mph
1010.6mb 39f 32f
9:24 2 5 mph 1010.7mb 39f 32f
9:18 3 5 mph 1010.7mb 39f 33f
9:12 5 6 mph 1010.7mb 39f 33f
9:06 3 5 mph 1010.5mb 39f 33f
9:00 2 5 mph 1010.3mb 39f 33f
8:54 1 2 mph 1010.1mb 39f 33f
8:48  -  mph 1010.2mb 39f 32f
8:42  -  mph 1010.2mb 39f 32f
8:36  -  mph 1010.3mb 39f 33f
8:30  -  mph 1010.2mb 39f 33f
8:24  -  1 mph 1010.2mb 39f 33f
8:18  -  mph 1010.2mb 39f 33f
8:12  -  1 mph 1010.1mb 39f 33f
8:06  -  3 mph 1010.1mb 39f 33f
8:00 1 5 mph 1010.1mb 39f 34f
7:54 2 6 mph 1010.1mb 39f 34f
7:48 2 5 mph 1010mb 39f 34f
7:42 2 3 mph 1010mb 39f 34f
7:36 3 6 mph 1010mb 39f 34f
7:30 1 6 mph 1009.8mb 39f 34f
7:24 1 7 mph 1009.7mb 39f 34f
7:18 5 7 mph 1009.6mb 39f 35f
7:12 3 7 mph 1009.5mb 39f 35f
7:06 2 5 mph 1009.6mb 39f 35f
7:00 3 6 mph 1009.5mb 39f 35f
6:54 3 6 mph 1009.4mb 39f 35f
6:48 5 8 mph 1009.3mb 39f -
6:42 3 8 mph 1009.4mb 39f 36f
6:36 5 7 mph 1009.3mb 39f 36f
6:30 5 7 mph 1009.3mb 39f 36f
6:24 3 6 mph 1009.2mb 39f 36f
6:18 3 7 mph 1009.2mb 39f 36f
6:12 5 8 mph 1009mb 39f 37f
6:06 2 5 mph 1009mb 39f 37f
6:00 5 9 mph 1008.9mb 39f 37f
5:54 5 7 mph 1008.7mb 39f 37f
5:48 3 6 mph 1008.5mb 39f 37f
5:42 3 5 mph 1008.5mb 39f 37f
5:36 3 5 mph 1008.3mb 39f 37f
5:30 3 6 mph 1008.2mb 39f 37f
5:24 1 6 mph 1008.2mb 39f 37f
5:18 5 7 mph - - -
5:12 3 6 mph 1008.1mb 39f 38f
5:06 3 9 mph 1007.9mb 39f 39f
5:00 3 8 mph 1007.8mb 39f 39f
4:54 5 9 mph 1007.7mb 39f 40f
4:48 2 9 mph - - -
4:42 2 9 mph 1007.4mb 39f 40f
4:36 6 11 mph 1007.3mb 39f 40f
4:30 5 13 mph - - -
4:24 6 9 mph 1007.1mb 39f 40f
4:18 5 10 mph 1007.1mb 39f 40f
4:12 7 13 mph 1007mb 39f 41f
4:06 6 14 mph 1007mb 39f 41f
4:00 6 13 mph 1006.9mb 39f 41f
3:54 5 9 mph 1006.9mb 39f 41f
3:48 7 10 mph 1006.9mb 39f 41f
3:42 5 13 mph 1006.9mb 39f 41f
3:36 6 14 mph 1006.8mb 39f 41f
3:30 6 15 mph 1006.7mb 39f 41f
3:24 6 14 mph 1006.5mb 39f 41f
3:18 9 16 mph 1006.5mb 39f 41f
3:12 5 15 mph 1006.4mb 39f 41f
3:06 6 10 mph 1006.4mb 39f 41f
3:00 6 13 mph 1006.5mb 39f 41f
2:54 8 15 mph 1006.5mb 39f 40f
2:48 7 14 mph 1006.4mb 39f 40f
2:42 8 15 mph 1006.5mb 39f 40f
2:36 9 17 mph 1006.4mb 39f 40f
2:30 9 15 mph 1006.4mb 39f 40f
2:24 8 14 mph 1006.5mb 39f 40f
2:18 8 15 mph 1006.6mb 39f 40f
2:12 6 14 mph 1006.7mb 39f 40f
2:06 10 16 mph 1006.6mb 39f 39f
2:00 6 10 mph 1006.7mb 39f 40f
1:54 5 14 mph 1006.6mb 39f 40f
1:48 6 11 mph 1006.7mb 39f 40f
1:42 7 15 mph 1006.7mb 39f 40f
1:36 6 13 mph 1006.7mb 39f 40f
1:30 6 13 mph 1006.7mb 39f 39f
1:24 11 18 mph 1006.7mb 39f 38f
1:18 10 15 mph 1006.8mb 39f 38f
1:12 7 15 mph 1006.7mb 39f 39f
1:06 8 16 mph 1006.7mb 39f 38f
1:00 9 15 mph 1006.8mb 39f 38f
12:54 5 13 mph 1006.8mb 39f 38f
12:48 9 14 mph 1006.7mb 38f 37f
12:42 6 15 mph 1006.7mb 39f 38f
12:36 13 16 mph 1006.6mb 39f 37f
12:30 7 15 mph 1006.7mb 39f 38f
12:24 10 14 mph 1006.6mb 39f 37f
12:18 8 14 mph 1006.7mb 39f 38f
12:12 6 13 mph 1006.7mb 39f 38f
12:06 8 18 mph 1006.8mb 38f 37f
12:00 8 16 mph 1006.8mb 38f 37f
11:54 7 11 mph 1006.9mb 38f 37f
11:48 8 15 mph 1006.9mb 38f 37f
11:42 5 17 mph 1006.9mb 38f 37f
11:36 9 15 mph 1006.9mb 38f 36f
11:30 8 18 mph 1006.9mb 39f 36f
11:24 9 18 mph 1007mb 39f 37f
11:18 7 16 mph 1007.1mb 39f 36f
11:12 8 14 mph 1007.2mb 39f 36f
11:06 7 14 mph 1007.3mb 39f 36f
11:00 6 9 mph 1007.3mb 39f 36f
10:54 9 15 mph 1007.3mb 38f 35f
10:48 7 11 mph 1007.4mb 38f 35f
10:42 9 21 mph 1007.4mb 38f 34f
10:36 5 14 mph 1007.5mb 38f 35f
10:30 7 20 mph 1007.4mb 39f 34f
10:24 6 15 mph 1007.4mb 39f 34f
10:18 6 13 mph 1007.4mb 39f 34f
10:12 6 15 mph 1007.5mb 38f 34f
10:06 5 17 mph 1007.5mb 38f 33f
10:00 9 16 mph 1007.5mb 38f 33f
9:54 11 17 mph 1007.5mb 38f 32f
9:48 6 14 mph 1007.6mb 38f 32f
9:42 5 18 mph 1007.7mb 38f 33f
9:36 9 21 mph 1007.6mb 38f 31f
9:30 10 16 mph 1007.7mb 38f 31f
9:24 7 14 mph 1007.8mb 38f 31f
9:18 6 15 mph 1007.8mb 38f 31f
9:12 6 11 mph 1007.8mb 39f 31f
9:06 5 11 mph 1007.9mb 39f 31f
9:00 5 13 mph 1007.8mb 38f 30f
8:54 6 11 mph 1007.8mb 38f 30f
8:48 6 13 mph 1007.8mb 38f 30f
8:42 3 13 mph 1007.9mb 38f 30f
8:36 10 17 mph 1007.9mb 38f 29f
8:30 8 13 mph 1008mb 38f 29f
8:24 3 10 mph 1008mb 38f 29f
8:18 3 13 mph 1008mb 38f 29f
8:12 3 10 mph 1008mb 39f 29f
8:06 3 13 mph 1008.1mb 38f 28f
8:00 6 10 mph 1008mb 39f 28f
7:54 3 6 mph 1008mb 39f 28f
7:48 3 7 mph 1008mb 39f 28f
7:42 5 11 mph 1008mb 39f 28f
7:36 6 10 mph 1007.8mb 39f 27f
7:30 5 11 mph 1007.7mb 39f 27f
7:24 6 11 mph 1007.7mb 39f 27f
7:18 5 9 mph 1007.6mb 39f 27f
7:12 5 8 mph 1007.6mb 38f 26f
7:06 6 10 mph 1007.5mb 38f 26f
7:00 7 13 mph 1007.4mb 38f 26f
6:54 2 7 mph 1007.3mb 39f 26f
6:48 2 9 mph 1007.2mb 39f 26f
6:42 2 6 mph 1007.2mb 39f 26f
6:36 2 6 mph 1007.1mb 39f 26f
6:30 2 8 mph 1007mb 39f 26f
6:24 5 11 mph 1007mb 39f 26f
6:18 2 10 mph 1007mb 39f 26f
6:12 7 10 mph 1006.8mb 39f 26f
6:06 3 10 mph 1006.8mb 39f 26f
6:00 8 13 mph 1006.8mb 39f 26f
5:54 5 11 mph 1006.9mb 39f 26f
5:48 5 10 mph 1006.9mb 39f 26f
5:42 7 10 mph 1006.8mb 39f 26f
5:36 6 11 mph 1006.7mb 39f 26f
5:30 5 8 mph 1006.7mb 39f 26f
5:24 6 11 mph 1006.6mb 39f 26f
5:18 6 13 mph 1006.5mb 39f 26f
5:12 7 11 mph 1006.5mb 39f 26f
5:06 8 11 mph 1006.5mb 39f 26f
5:00 6 9 mph 1006.4mb 39f 26f
4:54 7 14 mph 1006.3mb 39f 26f
4:48 8 13 mph 1006.2mb 39f 26f
4:42 7 9 mph 1006.2mb 39f 26f
4:36 7 10 mph 1006.2mb 39f 26f
4:30 6 10 mph 1006.2mb 39f 26f
4:24 5 11 mph 1006mb 39f 26f
4:18 6 11 mph 1006mb 39f 26f
4:12 3 8 mph 1006mb 39f 26f
4:06 3 11 mph 1006mb 39f 26f
4:00 2 8 mph 1006.1mb 39f 25f
3:54 5 7 mph 1006mb 39f 25f
3:48 3 5 mph 1006.1mb 39f 25f
3:42 6 9 mph 1006mb 39f 26f
3:36 3 7 mph 1006mb 39f 25f
3:30 3 8 mph 1005.9mb 39f 25f
3:24 6 9 mph 1005.9mb 39f 26f
3:18 3 7 mph 1005.9mb 39f 25f
3:12 2 8 mph 1005.9mb 39f 25f
3:06 2 5 mph 1005.8mb 39f 25f
3:00 5 10 mph 1005.9mb 39f 26f
2:54 5 11 mph 1005.8mb 39f 26f
2:48 6 11 mph 1005.9mb 39f 26f
2:42 6 9 mph 1005.9mb 39f 26f
2:36 3 10 mph 1005.8mb 39f 26f
2:30 5 9 mph 1005.9mb 39f 26f
2:24 3 8 mph 1005.9mb 39f 25f
2:18 2 8 mph 1005.8mb 39f 25f
2:12 3 9 mph 1005.7mb 39f 26f
2:06 3 9 mph 1005.7mb 39f 26f
2:00 3 9 mph 1005.7mb 39f 26f
1:54 3 8 mph 1005.7mb 39f 26f
1:48 5 8 mph 1005.6mb 39f 26f
1:42 3 9 mph 1005.5mb 39f 26f
1:36 7 10 mph 1005.4mb 39f 26f
1:30 5 10 mph 1005.4mb 39f 26f
1:24 5 13 mph 1005.3mb 39f 26f
1:18 6 9 mph 1005.2mb 39f 26f
1:12 5 9 mph 1005.3mb 39f 26f
1:06 5 15 mph 1005.3mb 39f 26f
1:00 7 10 mph 1005.2mb 39f 26f
12:54 6 10 mph 1005.2mb 39f 26f
12:48 6 11 mph 1005.2mb 39f 26f
12:42 5 11 mph 1005.3mb 39f 26f
12:36 6 15 mph 1005.2mb 39f 26f
12:30 6 13 mph 1005.2mb 39f 26f
12:24 3 13 mph 1005.2mb 39f 26f
12:18 7 15 mph 1005.1mb 39f 27f
12:12 5 11 mph 1005.2mb 39f 27f
12:06 7 16 mph 1005.2mb 39f 27f
12:00 6 15 mph 1005.1mb 39f 27f
jeu. 02/16 11:54 5 14 mph 1005mb 39f 27f
11:48 8 15 mph 1005mb 39f 27f
11:42 6 15 mph 1005mb 39f 27f
11:36 6 13 mph 1004.9mb 39f 27f
11:30 6 14 mph 1004.9mb 39f 27f
11:24 6 13 mph 1004.9mb 39f 27f
11:18 6 20 mph 1004.8mb 39f 27f
11:12 7 15 mph 1004.7mb 39f 27f
11:06 5 15 mph 1004.7mb 39f 27f
11:00 8 17 mph 1004.6mb 39f 27f
10:54 7 17 mph 1004.5mb 39f 27f
10:48 7 15 mph 1004.4mb 39f 27f
10:42 6 18 mph 1004.4mb 39f 27f
10:36 8 11 mph 1004.4mb 39f 27f
10:30 8 13 mph 1004.5mb 39f 27f
10:24 3 17 mph 1004.6mb 39f 28f
10:18 6 15 mph 1004.6mb 39f 28f
10:12 6 13 mph 1004.5mb 39f 28f
10:06 6 18 mph 1004.5mb 39f 28f
10:00 5 16 mph 1004.5mb 39f 28f
9:54 8 18 mph 1004.6mb 39f 28f
9:48 6 14 mph 1004.5mb 39f 28f
9:42 7 15 mph 1004.5mb 39f 28f
9:36 9 17 mph 1004.4mb 39f 28f
9:30 9 18 mph 1004.3mb 39f 28f
9:24 8 15 mph 1004.3mb 39f 28f
9:18 7 13 mph 1004.3mb 39f 28f
9:12 9 20 mph 1004.2mb 39f 28f
9:06 6 14 mph 1004.2mb 38f 29f
9:00 6 17 mph 1004.2mb 38f 29f
8:54 7 14 mph 1004mb 38f 29f
8:48 6 17 mph 1004mb 39f 29f
8:42 6 15 mph 1003.9mb 39f 29f
8:36 8 17 mph 1003.9mb 39f 29f
8:30 8 21 mph 1003.7mb 39f 29f
8:24 9 14 mph 1003.6mb 39f 30f
8:18 8 17 mph 1003.6mb 39f 30f
8:12 6 15 mph 1003.4mb 39f 30f
8:06 7 13 mph 1003.3mb 39f 30f
8:00 6 11 mph 1003.2mb 39f 30f
7:54 8 14 mph 1003mb 39f 30f
7:48 6 13 mph 1002.9mb 39f 30f
7:42 5 11 mph 1002.9mb 39f 30f
7:36 8 15 mph 1002.7mb 39f 31f
7:30 6 14 mph 1002.6mb 39f 31f
7:24 6 11 mph 1002.5mb 39f 31f
7:18 6 16 mph 1002.5mb 39f 31f
7:12 7 13 mph 1002.4mb 39f 31f
7:06 8 17 mph 1002.3mb 39f 31f
7:00 5 9 mph 1002.1mb 39f 32f
6:54 6 10 mph 1002mb 39f 32f
6:48 3 10 mph 1001.9mb 39f 32f
6:42 8 17 mph 1001.8mb 39f 32f
6:36 5 9 mph 1001.7mb 39f 32f
6:30 6 15 mph 1001.6mb 39f 32f
6:24 10 16 mph 1001.5mb 39f 32f
6:18 5 10 mph 1001.4mb 39f 32f
6:12 6 14 mph 1001.2mb 39f 32f
6:06 2 8 mph 1001.1mb 39f 32f
6:00 7 15 mph 1001mb 39f 33f
5:54 6 11 mph 1000.8mb 39f 32f
5:48 5 17 mph 1000.7mb 39f 33f
5:42 7 14 mph 1000.6mb 39f 33f
5:36 3 9 mph 1000.5mb 39f 32f
5:30 2 9 mph 1000.4mb 39f 33f
5:24 7 14 mph 1000.3mb 39f 33f
5:18 8 17 mph 1000.1mb 39f 33f
5:12 5 17 mph 1000mb 39f 33f
5:06 11 21 mph 999.9mb 39f 33f
5:00 6 13 mph 999.9mb 39f 33f
4:54 8 17 mph 999.8mb 39f 33f
4:48 9 18 mph 999.7mb 39f 34f
4:42 8 18 mph 999.6mb 39f 34f
4:36 6 14 mph 999.5mb 39f 34f
4:30 9 15 mph 999.4mb 39f 34f
4:24 8 18 mph 999.2mb 39f 34f
4:18 7 17 mph 999.1mb 39f 35f
4:12 6 13 mph 999.1mb 39f 35f
4:06 7 20 mph 999mb 39f 35f
4:00 9 16 mph 998.9mb 39f 36f
3:54 7 20 mph 998.9mb 39f 36f
3:48 13 20 mph 998.7mb 39f 36f
3:42 7 21 mph 998.6mb 39f 36f
3:36 10 20 mph 998.5mb 39f 35f
3:30 9 21 mph 998.5mb 39f 36f
3:24 13 20 mph 998.4mb 39f 36f
3:18 9 18 mph 998.3mb 39f 37f
3:12 9 20 mph 998.3mb 39f 37f
3:06 10 20 mph 998.3mb 39f 37f
3:00 7 18 mph 998.3mb 39f 37f
2:54 9 21 mph 998.2mb 39f 36f
2:48 7 15 mph 998.2mb 39f 37f
2:42 9 21 mph 998.2mb 39f 36f
2:36 14 22 mph 998.1mb 39f 36f
2:30 6 18 mph 998mb 39f 38f
2:24 5 17 mph 997.9mb 39f 38f
2:18 14 23 mph 997.8mb 39f 37f
2:12 10 22 mph 997.7mb 39f 37f
2:06 9 17 mph 997.8mb 39f 37f
2:00 6 18 mph 997.8mb 39f 37f
1:54 7 15 mph 997.7mb 39f 37f
1:48 8 23 mph 997.8mb 39f 37f
1:42 10 22 mph 997.6mb 39f 37f
1:36 6 15 mph 997.7mb 39f 38f
1:30 10 17 mph 997.6mb 39f 37f
1:24 9 17 mph 997.8mb 39f 37f
1:18 9 25 mph 997.8mb 39f 37f
1:12 11 22 mph 997.7mb 39f 37f
1:06 8 15 mph 997.6mb 39f 38f
1:00 8 20 mph 997.6mb 39f 38f
12:54 8 14 mph 997.6mb 39f 38f
12:48 9 16 mph 997.6mb 39f 38f
12:42 10 20 mph 997.6mb 39f 38f
12:36 14 24 mph 997.7mb 39f 37f
12:30 10 16 mph 997.8mb 39f 38f
12:24 8 17 mph 997.7mb 39f 38f
12:18 11 20 mph 997.7mb 39f 37f
12:12 11 20 mph 997.7mb 39f 37f
12:06 7 17 mph 997.8mb 39f 38f
12:00 9 17 mph 997.9mb 39f 37f
11:54 6 14 mph 997.8mb 39f 38f
11:48 7 14 mph 997.9mb 39f 37f
11:42 10 17 mph 997.9mb 39f 37f
11:36 7 16 mph 997.9mb 39f 37f
11:30 7 16 mph 997.9mb 39f 37f
11:24 8 17 mph 997.9mb 39f 37f
11:18 5 14 mph 997.9mb 39f 37f
11:12 8 13 mph 998mb 39f 37f
11:06 13 20 mph 997.8mb 39f 36f
11:00 11 24 mph 997.8mb 39f 36f
10:54 14 20 mph 997.8mb 39f 35f
10:48 8 13 mph 997.8mb 39f 36f
10:42 5 16 mph 997.8mb 39f 37f
10:36 6 14 mph 997.8mb 39f 37f
10:30 7 13 mph 997.7mb 39f 36f
10:24 8 15 mph 997.7mb 39f 36f
10:18 11 18 mph 997.6mb 39f 35f
10:12 11 16 mph 997.5mb 39f 35f
10:06 10 16 mph 997.5mb 39f 35f
10:00 8 11 mph 997.5mb 39f 35f
9:54 3 10 mph 997.5mb 39f 36f
9:48 7 13 mph 997.5mb 39f 35f
9:42 6 14 mph 997.5mb 39f 36f
9:36 7 17 mph 997.4mb 39f 35f
9:30 6 18 mph 997.4mb 39f 35f
9:24 6 13 mph 997.4mb 39f 35f
9:18 10 16 mph 997.4mb 39f 34f
9:12 6 14 mph 997.3mb 39f 35f
9:06 7 17 mph 997.3mb 39f 34f
9:00 6 10 mph 997.2mb 39f 35f
8:54 5 11 mph 997.3mb 39f 35f
8:48 6 16 mph 997.3mb 39f 34f
8:42 6 16 mph 997.2mb 39f 34f
8:36 3 14 mph 997.1mb 39f 34f
8:30 7 14 mph 997mb 39f 33f
8:24 6 16 mph 997mb 39f 34f
8:18 6 10 mph 997mb 39f 34f
8:12 6 13 mph 996.9mb 39f 33f
8:06 7 13 mph 996.9mb 39f 33f
8:00 5 14 mph 996.8mb 39f 33f
7:54 10 18 mph 996.7mb 39f 33f
7:48 5 10 mph 996.7mb 39f 33f
7:42 2 11 mph 996.7mb 39f 33f
7:36 5 10 mph 996.6mb 39f 33f
7:30 5 9 mph 996.5mb 39f 32f
7:24 5 8 mph 996.4mb 39f 32f
7:18 8 11 mph 996.4mb 39f 32f
7:12 3 8 mph 996.3mb 39f 32f
7:06 5 8 mph 996.1mb 39f 31f
7:00 6 9 mph 996.1mb 39f 31f
6:54 3 11 mph 995.9mb 39f 31f
6:48 2 6 mph 995.8mb 39f 31f
6:42 5 11 mph 995.7mb 39f 31f
6:36 5 8 mph 995.7mb 39f 31f
6:30 5 7 mph 995.6mb 39f 31f
6:24 3 7 mph 995.4mb 39f 31f
6:18 3 11 mph 995.3mb 39f 32f
6:12 3 8 mph 995.3mb 39f 32f
6:06 5 11 mph 995.3mb 39f 32f
6:00 3 10 mph 995.2mb 39f 32f
5:54 3 9 mph 995.2mb 39f 32f
5:48 3 10 mph 995.1mb 39f 32f
5:42 6 11 mph 995mb 39f 32f
5:36 6 14 mph 994.9mb 39f 33f
5:30 6 9 mph 994.8mb 39f 32f
5:24 3 9 mph 994.8mb 39f 32f
5:18 5 9 mph 994.7mb 39f 33f
5:12 6 10 mph 994.6mb 39f 33f
5:06 3 11 mph 994.6mb 39f 32f
5:00 6 11 mph 994.5mb 39f 33f
4:54 5 8 mph 994.4mb 39f 33f
4:48 6 9 mph 994.3mb 39f 33f
4:42 5 10 mph 994.2mb 39f 33f
4:36 6 9 mph 994.2mb 39f 33f
4:30 3 6 mph 994.2mb 39f 33f
4:24 5 7 mph 994.1mb 39f 33f
4:18 5 14 mph 994mb 39f 34f
4:12 6 10 mph 993.9mb 39f 34f
4:06 5 8 mph 993.8mb 39f 34f
4:00 3 6 mph 993.7mb 39f 34f
3:54 5 15 mph 993.6mb 39f 34f
3:48 5 11 mph 993.6mb 39f 34f
3:42 6 10 mph 993.5mb 39f 34f
3:36 5 13 mph 993.5mb 39f 34f
3:30 6 11 mph 993.4mb 39f 34f
3:24 3 16 mph 993.3mb 39f 34f
3:18 3 17 mph 993.4mb 39f 34f
3:12 6 15 mph 993.3mb 39f 35f
3:06 3 7 mph 993.3mb 39f 34f
3:00 6 14 mph 993.2mb 39f 35f
2:54 6 11 mph 993.2mb 39f 35f
2:48 5 11 mph 993.2mb 39f 34f
2:42 7 13 mph 993.2mb 39f 35f
2:36 6 14 mph 993.2mb 39f 35f
2:30 10 15 mph 993.2mb 39f 35f
2:24 7 15 mph 993.2mb 39f 35f
2:18 5 10 mph 993.2mb 39f 35f
2:12 5 14 mph 993.3mb 39f 35f
2:06 3 11 mph 993.3mb 39f 35f
2:00 6 14 mph 993.3mb 39f 35f
1:54 6 14 mph 993.2mb 39f 35f
1:48 8 14 mph 993.2mb 39f -
1:42 9 16 mph 993.2mb 39f -
1:36 6 11 mph 993.2mb 39f -
1:30 9 16 mph 993.1mb 39f 35f
1:24 7 14 mph 993mb 39f 35f
1:18 6 16 mph 993mb 39f 35f
1:12 7 17 mph 992.9mb 39f 35f
1:06 3 9 mph 992.9mb 39f 35f
1:00 8 14 mph 992.9mb 39f 35f
12:54 9 13 mph 992.8mb 39f 35f
12:48 6 13 mph 992.8mb 39f 35f
12:42 6 10 mph 992.7mb 39f 35f
12:36 8 14 mph 992.7mb 39f 35f
12:30 5 16 mph 992.6mb 39f 36f
12:24 6 14 mph 992.7mb 39f 36f
12:18 6 11 mph 992.6mb 39f 36f
12:12 5 10 mph 992.6mb 39f 36f
12:06 6 11 mph 992.5mb 39f 36f
12:00 5 10 mph 992.4mb 39f 35f
mer. 02/15 11:54 7 16 mph 992.3mb 39f 36f
11:48 6 13 mph 992.2mb 39f 36f
11:42 6 10 mph 992.1mb 39f 36f
11:36 7 14 mph 992.1mb 39f 36f
11:30 3 14 mph 992mb 39f 36f
11:24 8 14 mph 992mb 39f 36f
11:18 7 14 mph 992mb 39f 36f
11:12 3 9 mph 992mb 39f 36f
11:06 6 11 mph 992mb 39f 36f
11:00 7 14 mph 991.8mb 39f 37f
10:54 10 15 mph 991.7mb 39f 37f
10:48 3 20 mph 991.7mb 39f 37f
10:42 7 16 mph 991.6mb 39f 37f
10:36 5 10 mph 991.6mb 39f 37f
10:30 3 10 mph 991.6mb 39f 37f
10:24 6 18 mph 991.6mb 39f 37f
10:18 6 13 mph 991.6mb 39f 37f
10:12 6 9 mph 991.5mb 39f 37f
10:06 5 9 mph 991.5mb 39f 37f
10:00 6 9 mph 991.5mb 39f 37f
9:54 5 10 mph 991.5mb 39f 37f
9:48 7 14 mph 991.5mb 39f 37f
9:42 6 11 mph 991.5mb 39f 37f
9:36 5 11 mph 991.5mb 39f 37f
9:30 7 13 mph 991.5mb 39f 37f
9:24 6 13 mph 991.5mb 39f 37f
9:18 6 15 mph 991.5mb 39f 37f
9:12 5 9 mph 991.4mb 39f 37f
9:06 7 14 mph 991.5mb 39f 37f
9:00 5 13 mph 991.5mb 39f 38f
8:54 6 9 mph 991.4mb 39f 38f
8:48 2 11 mph 991.4mb 39f 38f
8:42 7 13 mph 991.4mb 39f 38f
8:36 6 13 mph 991.4mb 39f 38f
8:30 6 14 mph 991.4mb 39f 38f
8:24 6 14 mph 991.4mb 39f 39f
8:18 6 13 mph 991.3mb 39f 39f
8:12 5 15 mph 991.5mb 39f 39f
8:06 6 11 mph 991.4mb 39f 39f
8:00 3 6 mph 991.4mb 39f 37f
7:54 2
mph
991.1mb 39f 37f
7:48  -  1 mph 991mb 39f 37f
7:42 1 3 mph 991mb 39f 37f
7:36 2 3 mph 990.9mb 39f 37f
7:30 2 3 mph 990.8mb 39f 37f
7:24 2 5 mph 990.8mb 39f 37f
7:18 5
mph
990.7mb 39f 37f
7:12 2 3 mph 990.7mb 39f 37f
7:06 2 6 mph 990.7mb 39f 38f
7:00 3 6 mph 990.6mb 39f 40f
6:54 5 6 mph 990.6mb 39f 40f
6:48 2
mph
990.4mb 39f 40f
6:42 1 2 mph 990.3mb 39f 40f